createdAt,value
2023-04-25T00:02:13.314Z,1.30
2023-04-25T00:04:40.552Z,1.70
2023-04-25T00:07:09.404Z,1.55
2023-04-25T00:09:36.164Z,1.70
2023-04-25T00:12:03.117Z,1.50
2023-04-25T00:14:31.372Z,1.60
2023-04-25T00:16:58.930Z,1.25
2023-04-25T00:19:25.816Z,1.30
2023-04-25T00:21:52.685Z,1.33
2023-04-25T00:24:19.472Z,1.40
2023-04-25T00:26:46.414Z,1.08
2023-04-25T00:29:13.153Z,1.50
2023-04-25T00:31:40.185Z,1.30
2023-04-25T00:34:09.147Z,0.98
2023-04-25T00:36:36.022Z,1.10
2023-04-25T00:39:03.707Z,1.10
2023-04-25T00:41:31.264Z,1.50
2023-04-25T00:43:58.860Z,1.40
2023-04-25T00:46:25.780Z,1.67
2023-04-25T00:48:52.570Z,1.55
2023-04-25T00:51:21.869Z,1.45
2023-04-25T00:53:50.954Z,1.20
2023-04-25T00:56:18.522Z,1.30
2023-04-25T00:58:45.483Z,1.50
2023-04-25T01:01:13.733Z,1.50
2023-04-25T01:03:42.260Z,1.60
2023-04-25T01:06:12.717Z,1.10
2023-04-25T01:08:40.448Z,1.17
2023-04-25T01:11:07.477Z,0.95
2023-04-25T01:13:34.644Z,1.30
2023-04-25T01:16:02.558Z,1.38
2023-04-25T01:18:29.423Z,0.95
2023-04-25T01:20:56.713Z,1.20
2023-04-25T01:23:23.980Z,1.27
2023-04-25T01:25:51.717Z,1.42
2023-04-25T01:28:19.232Z,1.10
2023-04-25T01:30:47.203Z,1.45
2023-04-25T01:33:15.303Z,1.33
2023-04-25T01:35:42.152Z,1.42
2023-04-25T01:38:09.289Z,1.13
2023-04-25T01:40:39.840Z,1.50
2023-04-25T01:43:07.111Z,1.55
2023-04-25T01:45:34.213Z,1.70
2023-04-25T01:48:01.330Z,1.58
2023-04-25T01:50:28.184Z,1.70
2023-04-25T01:52:55.541Z,1.33
2023-04-25T01:55:22.380Z,1.50
2023-04-25T01:57:49.131Z,1.48
2023-04-25T02:00:16.116Z,2.20
2023-04-25T02:02:43.023Z,2.33
2023-04-25T02:05:10.098Z,2.20
2023-04-25T02:07:36.916Z,2.10
2023-04-25T02:10:03.883Z,2.00
2023-04-25T02:12:30.958Z,2.45
2023-04-25T02:14:58.080Z,2.13
2023-04-25T02:17:24.830Z,2.10
2023-04-25T02:19:51.609Z,1.92
2023-04-25T02:22:18.462Z,1.77
2023-04-25T02:24:45.341Z,1.55
2023-04-25T02:27:12.069Z,1.67
2023-04-25T02:29:39.306Z,1.10
2023-04-25T02:32:06.260Z,1.00
2023-04-25T02:34:33.191Z,0.98
2023-04-25T02:37:00.012Z,1.00
2023-04-25T02:39:28.238Z,1.52
2023-04-25T02:41:55.029Z,1.35
2023-04-25T02:44:21.895Z,1.40
2023-04-25T02:46:48.739Z,1.40
2023-04-25T02:49:15.707Z,1.20
2023-04-25T02:51:42.505Z,1.10
2023-04-25T02:54:09.241Z,1.45
2023-04-25T02:56:36.035Z,1.40
2023-04-25T02:59:02.837Z,1.45
2023-04-25T03:01:29.612Z,2.00
2023-04-25T03:03:56.361Z,2.13
2023-04-25T03:06:23.171Z,2.42
2023-04-25T03:08:49.955Z,1.85
2023-04-25T03:11:16.739Z,1.98
2023-04-25T03:13:43.511Z,2.20
2023-04-25T03:16:10.325Z,1.90
2023-04-25T03:18:37.108Z,2.05
2023-04-25T03:21:04.108Z,1.92
2023-04-25T03:23:31.350Z,2.20
2023-04-25T03:25:58.173Z,2.60
2023-04-25T03:28:25.073Z,2.58
2023-04-25T03:30:51.778Z,2.30
2023-04-25T03:33:18.595Z,2.10
2023-04-25T03:35:45.418Z,2.28
2023-04-25T03:38:12.256Z,2.22
2023-04-25T03:40:39.000Z,2.33
2023-04-25T03:43:05.943Z,2.10
2023-04-25T03:45:32.963Z,1.70
2023-04-25T03:47:59.835Z,1.30
2023-04-25T03:50:26.669Z,1.42
2023-04-25T03:52:53.475Z,1.20
2023-04-25T03:55:21.051Z,1.00
2023-04-25T03:57:47.908Z,0.95
2023-04-25T04:00:15.211Z,0.75
2023-04-25T04:02:44.004Z,1.17
2023-04-25T04:05:12.324Z,1.58
2023-04-25T04:07:41.178Z,1.77
2023-04-25T04:10:08.942Z,1.70
2023-04-25T04:12:35.838Z,1.30
2023-04-25T04:15:07.590Z,1.20
2023-04-25T04:17:35.246Z,1.27
2023-04-25T04:20:02.052Z,1.23
2023-04-25T04:22:28.803Z,1.00
2023-04-25T04:24:55.686Z,0.80
2023-04-25T04:27:23.684Z,0.77
2023-04-25T04:29:53.254Z,0.70
2023-04-25T04:32:20.044Z,0.80
2023-04-25T04:34:48.475Z,0.90
2023-04-25T04:37:15.803Z,1.00
2023-04-25T04:39:42.638Z,0.75
2023-04-25T04:42:09.764Z,1.40
2023-04-25T04:44:37.714Z,1.00
2023-04-25T04:47:07.256Z,0.80
2023-04-25T04:49:34.329Z,1.20
2023-04-25T04:52:01.745Z,1.20
2023-04-25T04:54:28.490Z,0.95
2023-04-25T04:56:55.270Z,0.90
2023-04-25T04:59:22.386Z,0.90
2023-04-25T05:01:49.179Z,1.40
2023-04-25T05:04:16.072Z,1.25
2023-04-25T05:06:42.989Z,1.40
2023-04-25T05:09:09.783Z,1.00
2023-04-25T05:11:36.655Z,1.00
2023-04-25T05:14:03.590Z,1.20
2023-04-25T05:16:30.376Z,1.40
2023-04-25T05:18:57.187Z,1.80
2023-04-25T05:21:23.962Z,2.00
2023-04-25T05:23:50.956Z,2.30
2023-04-25T05:26:17.893Z,2.40
2023-04-25T05:28:44.799Z,2.53
2023-04-25T05:31:11.800Z,2.70
2023-04-25T05:33:38.601Z,2.83
2023-04-25T05:36:05.749Z,3.55
2023-04-25T05:38:34.664Z,4.43
2023-04-25T05:41:02.079Z,3.13
2023-04-25T05:43:28.851Z,3.40
2023-04-25T05:45:55.804Z,3.78
2023-04-25T05:48:22.687Z,2.72
2023-04-25T05:50:49.435Z,3.80
2023-04-25T05:53:16.258Z,4.70
2023-04-25T05:55:43.092Z,3.60
2023-04-25T05:58:09.881Z,2.85
2023-04-25T06:00:36.665Z,3.33
2023-04-25T06:03:03.652Z,3.70
2023-04-25T06:05:30.843Z,3.00
2023-04-25T06:07:57.857Z,4.53
2023-04-25T06:10:24.654Z,4.30
2023-04-25T06:12:51.425Z,4.25
2023-04-25T06:15:28.118Z,3.78
2023-04-25T06:17:56.432Z,3.78
2023-04-25T06:20:25.322Z,3.85
2023-04-25T06:22:52.858Z,5.40
2023-04-25T06:25:19.898Z,3.97
2023-04-25T06:27:46.752Z,3.47
2023-04-25T06:30:13.821Z,3.45
2023-04-25T06:32:40.761Z,4.13
2023-04-25T06:35:07.967Z,4.03
2023-04-25T06:37:34.759Z,4.25
2023-04-25T06:40:01.955Z,3.67
2023-04-25T06:42:28.787Z,5.00
2023-04-25T06:44:55.663Z,3.58
2023-04-25T06:47:22.561Z,3.42
2023-04-25T06:49:49.564Z,3.20
2023-04-25T06:52:16.403Z,2.92
2023-04-25T06:54:43.228Z,3.00
2023-04-25T06:57:10.027Z,3.47
2023-04-25T06:59:36.770Z,3.28
2023-04-25T07:02:04.624Z,3.28
2023-04-25T07:04:32.066Z,3.13
2023-04-25T07:06:59.328Z,2.83
2023-04-25T07:09:26.270Z,3.40
2023-04-25T07:11:53.119Z,2.83
2023-04-25T07:14:19.874Z,2.78
2023-04-25T07:16:46.778Z,2.25
2023-04-25T07:19:13.528Z,2.38
2023-04-25T07:21:40.298Z,2.92
2023-04-25T07:24:07.483Z,3.35
2023-04-25T07:26:34.415Z,2.90
2023-04-25T07:29:01.358Z,2.15
2023-04-25T07:31:28.770Z,3.17
2023-04-25T07:33:55.651Z,3.15
2023-04-25T07:36:22.584Z,2.38
2023-04-25T07:38:49.674Z,2.40
2023-04-25T07:41:16.727Z,2.70
2023-04-25T07:43:43.436Z,2.17
2023-04-25T07:46:10.785Z,2.03
2023-04-25T07:48:37.642Z,1.70
2023-04-25T07:51:06.196Z,1.73
2023-04-25T07:53:34.920Z,1.92
2023-04-25T07:56:01.793Z,1.80
2023-04-25T07:58:28.585Z,1.80
2023-04-25T08:00:55.474Z,1.48
2023-04-25T08:03:22.650Z,2.28
2023-04-25T08:05:49.832Z,2.45
2023-04-25T08:08:16.688Z,1.45
2023-04-25T08:10:43.508Z,1.33
2023-04-25T08:13:10.240Z,2.28
2023-04-25T08:15:37.060Z,2.13
2023-04-25T08:18:03.928Z,2.50
2023-04-25T08:20:30.758Z,2.38
2023-04-25T08:22:57.648Z,2.58
2023-04-25T08:25:24.461Z,2.40
2023-04-25T08:27:51.569Z,2.42
2023-04-25T08:30:18.396Z,2.15
2023-04-25T08:32:45.263Z,2.53
2023-04-25T08:35:12.250Z,2.30
2023-04-25T08:37:39.430Z,2.10
2023-04-25T08:40:08.231Z,2.10
2023-04-25T08:42:38.195Z,2.30
2023-04-25T08:45:07.071Z,2.83
2023-04-25T08:47:35.733Z,2.47
2023-04-25T08:50:04.776Z,2.58
2023-04-25T08:52:37.105Z,3.13
2023-04-25T08:55:05.803Z,2.60
2023-04-25T08:57:33.269Z,2.92
2023-04-25T09:00:02.125Z,2.28
2023-04-25T09:02:29.965Z,2.35
2023-04-25T09:04:57.593Z,2.25
2023-04-25T09:07:24.418Z,2.67
2023-04-25T09:09:51.215Z,1.80
2023-04-25T09:12:21.190Z,2.20
2023-04-25T09:15:08.116Z,2.65
2023-04-25T09:17:35.032Z,1.70
2023-04-25T09:20:13.870Z,2.20
2023-04-25T09:22:40.969Z,2.33
2023-04-25T09:25:12.821Z,2.20
2023-04-25T09:27:53.443Z,2.00
2023-04-25T09:30:31.417Z,2.17
2023-04-25T09:33:04.614Z,1.90
2023-04-25T09:35:40.209Z,1.88
2023-04-25T09:38:14.956Z,1.90
2023-04-25T09:40:46.689Z,2.15
2023-04-25T09:43:21.861Z,1.90
2023-04-25T09:45:49.395Z,2.05
2023-04-25T09:48:23.049Z,2.28
2023-04-25T09:51:16.190Z,2.00
2023-04-25T09:53:44.988Z,1.70
2023-04-25T09:56:13.417Z,2.00
2023-04-25T09:58:41.817Z,1.55
2023-04-25T10:01:10.510Z,1.75
2023-04-25T10:03:41.398Z,2.00
2023-04-25T10:06:17.535Z,2.55
2023-04-25T10:08:45.307Z,1.73
2023-04-25T10:11:15.436Z,2.00
2023-04-25T10:13:44.039Z,2.20
2023-04-25T10:16:11.352Z,2.60
2023-04-25T10:18:38.493Z,2.28
2023-04-25T10:21:07.433Z,2.38
2023-04-25T10:23:35.702Z,2.80
2023-04-25T10:26:03.010Z,2.90
2023-04-25T10:28:29.850Z,2.50
2023-04-25T10:31:04.575Z,2.05
2023-04-25T10:33:43.874Z,1.95
2023-04-25T10:36:12.412Z,1.80
2023-04-25T10:38:39.797Z,1.95
2023-04-25T10:41:11.406Z,2.25
2023-04-25T10:43:43.207Z,1.50
2023-04-25T10:46:20.547Z,2.20
2023-04-25T10:48:50.034Z,2.22
2023-04-25T10:51:27.718Z,2.35
2023-04-25T10:53:58.859Z,2.50
2023-04-25T10:56:41.233Z,2.90
2023-04-25T10:59:08.017Z,3.10
2023-04-25T11:01:42.487Z,2.60
2023-04-25T11:04:31.014Z,2.78
2023-04-25T11:07:06.986Z,2.20
2023-04-25T11:09:39.882Z,2.78
2023-04-25T11:12:09.543Z,2.10
2023-04-25T11:14:37.291Z,1.77
2023-04-25T11:17:04.434Z,2.20
2023-04-25T11:19:31.621Z,1.90
2023-04-25T11:22:02.913Z,1.90
2023-04-25T11:24:31.990Z,1.83
2023-04-25T11:27:03.508Z,1.95
2023-04-25T11:29:31.665Z,2.58
2023-04-25T11:32:02.188Z,2.10
2023-04-25T11:34:34.169Z,2.30
2023-04-25T11:37:06.883Z,2.28
2023-04-25T11:39:33.692Z,3.03
2023-04-25T11:42:02.321Z,2.72
2023-04-25T11:44:31.616Z,2.83
2023-04-25T11:46:58.685Z,3.00
2023-04-25T11:49:26.053Z,2.53
2023-04-25T11:51:52.930Z,2.13
2023-04-25T11:54:19.702Z,2.15
2023-04-25T11:56:47.004Z,2.20
2023-04-25T11:59:14.639Z,2.80
2023-04-25T12:01:48.652Z,3.40
2023-04-25T12:04:19.857Z,2.70
2023-04-25T12:06:49.148Z,2.38
2023-04-25T12:09:22.482Z,2.20
2023-04-25T12:11:53.723Z,2.10
2023-04-25T12:14:27.358Z,2.50
2023-04-25T12:16:56.999Z,2.28
2023-04-25T12:19:23.720Z,1.90
2023-04-25T12:21:57.845Z,2.85
2023-04-25T12:24:28.361Z,3.47
2023-04-25T12:27:06.062Z,2.78
2023-04-25T12:29:42.061Z,3.00
2023-04-25T12:32:15.109Z,2.47
2023-04-25T12:34:41.850Z,2.05
2023-04-25T12:37:08.563Z,1.90
2023-04-25T12:39:35.374Z,2.33
2023-04-25T12:42:02.174Z,2.17
2023-04-25T12:44:28.922Z,2.00
2023-04-25T12:46:56.345Z,2.20
2023-04-25T12:49:23.431Z,2.25
2023-04-25T12:51:50.490Z,2.55
2023-04-25T12:54:17.271Z,1.90
2023-04-25T12:56:44.228Z,2.42
2023-04-25T12:59:11.195Z,1.90
2023-04-25T13:01:38.752Z,2.03
2023-04-25T13:04:05.726Z,2.17
2023-04-25T13:06:32.992Z,1.77
2023-04-25T13:08:59.823Z,1.67
2023-04-25T13:11:26.655Z,2.08
2023-04-25T13:13:54.314Z,1.30
2023-04-25T13:16:22.516Z,2.00
2023-04-25T13:18:49.956Z,1.40
2023-04-25T13:21:17.257Z,1.98
2023-04-25T13:23:45.703Z,1.67
2023-04-25T13:26:12.888Z,1.60
2023-04-25T13:28:42.937Z,1.40
2023-04-25T13:31:11.995Z,1.70
2023-04-25T13:33:39.191Z,1.80
2023-04-25T13:36:06.585Z,2.03
2023-04-25T13:38:33.943Z,2.03
2023-04-25T13:41:01.955Z,1.60
2023-04-25T13:43:29.200Z,1.80
2023-04-25T13:45:56.584Z,1.40
2023-04-25T13:48:24.332Z,1.30
2023-04-25T13:50:51.734Z,1.40
2023-04-25T13:53:18.950Z,1.30
2023-04-25T13:55:46.741Z,1.20
2023-04-25T13:58:14.072Z,1.13
2023-04-25T14:00:44.419Z,1.10
2023-04-25T14:03:11.843Z,1.20
2023-04-25T14:05:40.028Z,0.95
2023-04-25T14:08:11.347Z,0.95
2023-04-25T14:10:38.803Z,1.00
2023-04-25T14:13:06.992Z,0.82
2023-04-25T14:15:35.761Z,0.77
2023-04-25T14:18:03.266Z,0.80
2023-04-25T14:20:30.487Z,0.98
2023-04-25T14:22:59.189Z,1.00
2023-04-25T14:25:26.773Z,1.20
2023-04-25T14:27:54.313Z,1.23
2023-04-25T14:30:22.475Z,1.02
2023-04-25T14:32:51.148Z,1.15
2023-04-25T14:35:18.698Z,1.23
2023-04-25T14:37:45.962Z,1.20
2023-04-25T14:40:14.270Z,1.20
2023-04-25T14:42:41.986Z,1.80
2023-04-25T14:45:09.752Z,1.15
2023-04-25T14:47:38.002Z,1.77
2023-04-25T14:50:05.754Z,1.30
2023-04-25T14:52:32.981Z,1.38
2023-04-25T14:55:02.892Z,1.23
2023-04-25T14:57:30.050Z,1.10
2023-04-25T14:59:57.196Z,1.10
2023-04-25T15:02:25.366Z,1.10
2023-04-25T15:04:52.666Z,1.20
2023-04-25T15:07:19.954Z,2.10
2023-04-25T15:09:47.241Z,0.82
2023-04-25T15:12:14.379Z,1.20
2023-04-25T15:14:41.920Z,1.30
2023-04-25T15:17:09.048Z,1.05
2023-04-25T15:19:36.351Z,0.90
2023-04-25T15:22:04.048Z,1.00
2023-04-25T15:24:31.217Z,0.80
2023-04-25T15:26:59.327Z,0.90
2023-04-25T15:29:27.227Z,1.10
2023-04-25T15:31:54.626Z,1.08
2023-04-25T15:34:22.009Z,1.25
2023-04-25T15:36:49.911Z,1.20
2023-04-25T15:39:17.660Z,1.83
2023-04-25T15:41:45.019Z,1.50
2023-04-25T15:44:12.188Z,1.52
2023-04-25T15:46:40.073Z,1.60
2023-04-25T15:49:07.447Z,2.00
2023-04-25T15:51:34.804Z,1.60
2023-04-25T15:54:02.692Z,1.75
2023-04-25T15:56:29.917Z,1.60
2023-04-25T15:58:57.142Z,1.30
2023-04-25T16:01:26.289Z,1.70
2023-04-25T16:03:53.847Z,1.63
2023-04-25T16:06:20.937Z,2.03
2023-04-25T16:08:47.684Z,1.38
2023-04-25T16:11:14.885Z,1.65
2023-04-25T16:13:41.820Z,2.75
2023-04-25T16:16:11.895Z,2.67
2023-04-25T16:18:39.584Z,2.55
2023-04-25T16:21:09.752Z,3.58
2023-04-25T16:23:37.305Z,5.07
2023-04-25T16:26:04.339Z,3.72
2023-04-25T16:28:31.650Z,3.00
2023-04-25T16:30:58.431Z,3.92
2023-04-25T16:33:25.220Z,4.65
2023-04-25T16:35:52.932Z,4.75
2023-04-25T16:38:19.824Z,3.17
2023-04-25T16:40:46.601Z,4.35
2023-04-25T16:43:13.531Z,4.95
2023-04-25T16:45:40.294Z,4.90
2023-04-25T16:48:07.253Z,5.25
2023-04-25T16:50:34.033Z,5.22
2023-04-25T16:53:00.863Z,6.45
2023-04-25T16:55:27.670Z,5.60
2023-04-25T16:57:55.200Z,4.82
2023-04-25T17:00:22.339Z,4.68
2023-04-25T17:02:49.225Z,6.10
2023-04-25T17:05:16.148Z,5.70
2023-04-25T17:07:42.976Z,5.70
2023-04-25T17:10:10.382Z,5.47
2023-04-25T17:12:37.524Z,4.47
2023-04-25T17:15:04.681Z,3.53
2023-04-25T17:17:31.550Z,2.90
2023-04-25T17:19:58.434Z,2.50
2023-04-25T17:22:25.207Z,2.22
2023-04-25T17:24:52.105Z,2.20
2023-04-25T17:27:18.872Z,2.47
2023-04-25T17:29:45.603Z,2.10
2023-04-25T17:32:12.548Z,1.50
2023-04-25T17:34:40.342Z,1.27
2023-04-25T17:37:09.642Z,1.02
2023-04-25T17:39:36.945Z,1.10
2023-04-25T17:42:03.953Z,1.73
2023-04-25T17:44:31.047Z,0.90
2023-04-25T17:46:57.842Z,1.15
2023-04-25T17:49:24.599Z,0.80
2023-04-25T17:51:51.772Z,0.70
2023-04-25T17:54:18.702Z,0.60
2023-04-25T17:56:45.541Z,1.20
2023-04-25T17:59:12.674Z,1.50
2023-04-25T18:01:41.077Z,1.42
2023-04-25T18:04:10.677Z,1.10
2023-04-25T18:06:37.515Z,1.20
2023-04-25T18:09:15.896Z,1.20
2023-04-25T18:11:43.831Z,1.05
2023-04-25T18:14:14.424Z,1.02
2023-04-25T18:16:45.905Z,1.00
2023-04-25T18:19:15.812Z,0.85
2023-04-25T18:21:43.643Z,0.80
2023-04-25T18:24:12.412Z,0.80
2023-04-25T18:26:39.893Z,0.70
2023-04-25T18:29:12.017Z,0.70
2023-04-25T18:31:39.405Z,0.57
2023-04-25T18:34:06.296Z,0.60
2023-04-25T18:36:33.030Z,0.45
2023-04-25T18:41:51.988Z,0.40
2023-04-25T18:44:17.830Z,0.47
2023-04-25T18:46:47.134Z,0.50
2023-04-25T18:49:13.841Z,0.40
2023-04-25T18:51:41.677Z,0.50
2023-04-25T18:54:11.038Z,0.50
2023-04-25T18:56:37.812Z,0.50
2023-04-25T18:59:04.603Z,0.63
2023-04-25T19:01:31.619Z,0.80
2023-04-25T19:03:58.967Z,0.98
2023-04-25T19:06:29.686Z,0.70
2023-04-25T19:08:57.532Z,0.60
2023-04-25T19:11:24.878Z,0.40
2023-04-25T19:13:52.361Z,0.40
2023-04-25T19:16:19.302Z,0.40
2023-04-25T19:18:46.967Z,0.35
2023-04-25T19:21:13.914Z,0.50
2023-04-25T19:23:41.634Z,0.40
2023-04-25T19:26:08.565Z,0.50
2023-04-25T19:28:35.393Z,0.50
2023-04-25T19:31:02.510Z,0.50
2023-04-25T19:33:29.697Z,0.30
2023-04-25T19:35:56.504Z,0.43
2023-04-25T19:38:23.308Z,0.38
2023-04-25T19:40:50.269Z,0.50
2023-04-25T19:43:17.695Z,0.63
2023-04-25T19:45:44.510Z,0.70
2023-04-25T19:48:12.473Z,0.50
2023-04-25T19:50:39.250Z,0.60
2023-04-25T19:53:05.975Z,0.77
2023-04-25T19:55:32.865Z,0.50
2023-04-25T19:57:59.768Z,1.10
2023-04-25T20:00:26.924Z,0.60
2023-04-25T20:02:54.269Z,0.50
2023-04-25T20:05:21.280Z,0.40
2023-04-25T20:07:48.322Z,0.43
2023-04-25T20:10:16.521Z,0.40
2023-04-25T20:12:44.635Z,0.40
2023-04-25T20:15:12.240Z,0.40
2023-04-25T20:17:40.326Z,0.40
2023-04-25T20:20:08.050Z,0.43
2023-04-25T20:22:39.865Z,0.40
2023-04-25T20:25:08.807Z,0.32
2023-04-25T20:27:37.971Z,0.93
2023-04-25T20:30:09.168Z,0.40
2023-04-25T20:32:37.080Z,0.38
2023-04-25T20:35:07.049Z,0.73
2023-04-25T20:37:34.595Z,0.50
2023-04-25T20:40:03.739Z,0.47
2023-04-25T20:42:32.013Z,0.40
2023-04-25T20:44:58.767Z,0.30
2023-04-25T20:47:25.618Z,0.40
2023-04-25T20:49:53.010Z,0.57
2023-04-25T20:52:19.813Z,0.57
2023-04-25T20:54:50.495Z,0.45
2023-04-25T20:57:17.709Z,0.30
2023-04-25T20:59:44.865Z,0.32
2023-04-25T21:02:13.781Z,0.35
2023-04-25T21:04:40.733Z,0.30
2023-04-25T21:07:07.638Z,0.40
2023-04-25T21:09:34.368Z,0.40
2023-04-25T21:12:01.170Z,0.38
2023-04-25T21:14:28.105Z,0.40
2023-04-25T21:16:55.060Z,0.30
2023-04-25T21:19:21.784Z,0.47
2023-04-25T21:21:48.561Z,0.50
2023-04-25T21:24:15.483Z,0.40
2023-04-25T21:26:42.640Z,0.47
2023-04-25T21:29:09.613Z,0.38
2023-04-25T21:31:37.743Z,0.40
2023-04-25T21:34:07.113Z,0.40
2023-04-25T21:36:34.233Z,0.40
2023-04-25T21:39:01.158Z,0.38
2023-04-25T21:41:28.024Z,0.50
2023-04-25T21:43:54.807Z,0.52
2023-04-25T21:46:24.399Z,0.63
2023-04-25T21:48:51.876Z,0.60
2023-04-25T21:51:19.543Z,0.55
2023-04-25T21:53:46.764Z,0.50
2023-04-25T21:56:13.534Z,0.43
2023-04-25T21:58:40.351Z,0.32
2023-04-25T22:01:07.172Z,0.50
2023-04-25T22:03:34.295Z,0.63
2023-04-25T22:06:02.391Z,0.65
2023-04-25T22:08:29.208Z,0.70
2023-04-25T22:10:55.953Z,0.50
2023-04-25T22:13:22.886Z,0.50
2023-04-25T22:15:49.782Z,0.50
2023-04-25T22:18:16.579Z,0.40
2023-04-25T22:20:44.370Z,0.45
2023-04-25T22:23:12.119Z,0.50
2023-04-25T22:25:38.988Z,0.63
2023-04-25T22:28:05.896Z,0.40
2023-04-25T22:30:33.012Z,0.55
2023-04-25T22:32:59.846Z,0.40
2023-04-25T22:35:26.692Z,0.50
2023-04-25T22:37:53.531Z,0.63
2023-04-25T22:40:20.419Z,0.65
2023-04-25T22:42:47.508Z,0.68
2023-04-25T22:45:14.835Z,0.65
2023-04-25T22:47:43.150Z,0.70
2023-04-25T22:50:16.548Z,0.47
2023-04-25T22:52:44.097Z,0.30
2023-04-25T22:55:13.108Z,0.50
2023-04-25T22:57:40.912Z,0.30
2023-04-25T23:00:15.720Z,0.73
2023-04-25T23:02:45.660Z,0.88
2023-04-25T23:05:14.028Z,0.93
2023-04-25T23:07:41.961Z,0.80
2023-04-25T23:10:09.080Z,0.90
2023-04-25T23:12:36.114Z,0.70
2023-04-25T23:15:05.090Z,0.75
2023-04-25T23:17:32.289Z,0.47
2023-04-25T23:19:59.178Z,0.52
2023-04-25T23:22:25.974Z,0.50
2023-04-25T23:24:52.824Z,0.57
2023-04-25T23:27:19.619Z,0.63
2023-04-25T23:29:54.767Z,0.75
2023-04-25T23:32:22.373Z,0.70
2023-04-25T23:34:49.413Z,0.60
2023-04-25T23:37:16.533Z,0.35
2023-04-25T23:39:50.870Z,0.40
2023-04-25T23:42:18.362Z,0.40
2023-04-25T23:44:45.320Z,0.50
2023-04-25T23:47:13.912Z,0.40
2023-04-25T23:49:41.149Z,0.50
2023-04-25T23:52:08.022Z,0.68
2023-04-25T23:54:34.858Z,0.50
2023-04-25T23:57:04.447Z,0.65
2023-04-25T23:59:31.964Z,0.40
